createdAt,value
2018-12-13T00:01:44.602Z,29.33
2018-12-13T00:04:13.052Z,34.23
2018-12-13T00:06:41.512Z,27.70
2018-12-13T00:09:10.050Z,30.17
2018-12-13T00:11:38.468Z,34.00
2018-12-13T00:14:06.892Z,32.10
2018-12-13T00:16:35.377Z,31.80
2018-12-13T00:19:03.853Z,27.40
2018-12-13T00:21:32.260Z,35.73
2018-12-13T00:24:00.763Z,32.83
2018-12-13T00:26:29.170Z,30.60
2018-12-13T00:28:57.603Z,30.17
2018-12-13T00:31:26.028Z,33.90
2018-12-13T00:33:54.504Z,32.30
2018-12-13T00:36:22.935Z,31.77
2018-12-13T00:38:51.392Z,28.87
2018-12-13T00:41:19.833Z,34.33
2018-12-13T00:43:48.289Z,31.93
2018-12-13T00:46:16.747Z,32.13
2018-12-13T00:48:45.154Z,36.17
2018-12-13T00:51:13.699Z,32.23
2018-12-13T00:53:42.258Z,36.27
2018-12-13T00:56:10.674Z,32.27
2018-12-13T00:58:39.497Z,34.47
2018-12-13T01:01:07.997Z,32.43
2018-12-13T01:03:36.635Z,36.13
2018-12-13T01:06:05.119Z,36.03
2018-12-13T01:08:33.607Z,38.77
2018-12-13T01:11:02.048Z,32.57
2018-12-13T01:13:30.487Z,35.03
2018-12-13T01:15:58.940Z,40.40
2018-12-13T01:18:27.421Z,36.43
2018-12-13T01:20:55.938Z,31.77
2018-12-13T01:23:24.489Z,29.50
2018-12-13T01:25:52.938Z,29.87
2018-12-13T01:28:21.397Z,29.73
2018-12-13T01:30:49.876Z,30.23
2018-12-13T01:33:18.336Z,31.20
2018-12-13T01:35:46.767Z,31.77
2018-12-13T01:38:15.244Z,30.27
2018-12-13T01:40:44.293Z,29.07
2018-12-13T01:43:12.745Z,32.00
2018-12-13T01:45:41.245Z,30.33
2018-12-13T01:48:09.659Z,27.83
2018-12-13T01:50:38.145Z,24.53
2018-12-13T01:53:06.797Z,27.30
2018-12-13T01:55:35.343Z,32.30
2018-12-13T01:58:03.793Z,24.60
2018-12-13T02:00:32.396Z,24.87
2018-12-13T02:03:00.873Z,26.13
2018-12-13T02:05:29.437Z,26.30
2018-12-13T02:07:57.861Z,23.97
2018-12-13T02:10:26.315Z,25.03
2018-12-13T02:12:54.806Z,22.90
2018-12-13T02:15:23.325Z,25.23
2018-12-13T02:17:51.764Z,22.40
2018-12-13T02:20:20.263Z,22.07
2018-12-13T02:22:48.717Z,18.50
2018-12-13T02:25:17.207Z,22.47
2018-12-13T02:27:45.688Z,20.10
2018-12-13T02:30:14.171Z,22.73
2018-12-13T02:32:42.678Z,19.83
2018-12-13T02:35:11.262Z,23.23
2018-12-13T02:37:39.807Z,24.77
2018-12-13T02:40:08.297Z,21.80
2018-12-13T02:42:36.878Z,21.70
2018-12-13T02:45:05.337Z,22.47
2018-12-13T02:47:33.974Z,24.00
2018-12-13T02:50:02.492Z,25.83
2018-12-13T02:52:30.905Z,23.70
2018-12-13T02:54:59.371Z,26.33
2018-12-13T02:57:27.881Z,25.33
2018-12-13T02:59:56.377Z,24.93
2018-12-13T03:02:24.834Z,24.63
2018-12-13T03:04:53.293Z,24.40
2018-12-13T03:07:21.837Z,26.63
2018-12-13T03:09:50.249Z,22.60
2018-12-13T03:12:18.753Z,30.40
2018-12-13T03:14:47.202Z,28.60
2018-12-13T03:17:15.641Z,31.30
2018-12-13T03:19:44.115Z,28.13
2018-12-13T03:22:12.636Z,30.47
2018-12-13T03:24:41.049Z,32.53
2018-12-13T03:27:09.529Z,26.23
2018-12-13T03:29:38.009Z,26.27
2018-12-13T03:32:06.427Z,28.93
2018-12-13T03:34:34.936Z,38.30
2018-12-13T03:37:03.353Z,30.53
2018-12-13T03:39:31.785Z,36.17
2018-12-13T03:42:00.260Z,32.03
2018-12-13T03:44:28.844Z,31.77
2018-12-13T03:46:57.301Z,32.83
2018-12-13T03:49:25.792Z,36.73
2018-12-13T03:51:54.238Z,32.47
2018-12-13T03:54:22.684Z,32.00
2018-12-13T03:56:51.178Z,34.80
2018-12-13T03:59:19.592Z,35.27
2018-12-13T04:01:48.078Z,33.73
2018-12-13T04:04:16.516Z,33.80
2018-12-13T04:06:44.988Z,32.83
2018-12-13T04:09:13.470Z,35.20
2018-12-13T04:11:41.920Z,38.20
2018-12-13T04:14:10.412Z,41.23
2018-12-13T04:16:38.925Z,37.90
2018-12-13T04:19:07.410Z,35.47
2018-12-13T04:21:35.799Z,34.83
2018-12-13T04:24:04.270Z,36.00
2018-12-13T04:26:32.749Z,39.73
2018-12-13T04:29:01.197Z,40.30
2018-12-13T04:31:29.620Z,44.60
2018-12-13T04:33:58.121Z,39.63
2018-12-13T04:36:26.636Z,46.03
2018-12-13T04:38:55.110Z,42.93
2018-12-13T04:41:23.588Z,45.63
2018-12-13T04:43:52.102Z,46.47
2018-12-13T04:46:20.552Z,48.27
2018-12-13T04:48:49.088Z,41.13
2018-12-13T04:51:18.261Z,40.93
2018-12-13T04:53:46.805Z,48.37
2018-12-13T04:56:15.307Z,46.43
2018-12-13T04:58:43.731Z,44.87
2018-12-13T05:01:12.237Z,43.87
2018-12-13T05:03:40.672Z,40.37
2018-12-13T05:06:09.096Z,45.20
2018-12-13T05:08:37.644Z,53.17
2018-12-13T05:11:06.158Z,45.80
2018-12-13T05:13:34.706Z,44.83
2018-12-13T05:16:03.133Z,43.63
2018-12-13T05:18:31.625Z,50.67
2018-12-13T05:21:00.127Z,42.93
2018-12-13T05:23:28.555Z,47.70
2018-12-13T05:25:56.987Z,39.67
2018-12-13T05:28:25.415Z,43.97
2018-12-13T05:30:53.861Z,42.77
2018-12-13T05:33:22.332Z,43.83
2018-12-13T05:35:50.820Z,43.13
2018-12-13T05:38:19.257Z,50.57
2018-12-13T05:40:47.713Z,42.90
2018-12-13T05:43:16.112Z,44.20
2018-12-13T05:45:44.612Z,42.37
2018-12-13T05:48:13.130Z,41.50
2018-12-13T05:50:41.568Z,44.73
2018-12-13T05:53:10.000Z,47.67
2018-12-13T05:55:38.500Z,45.27
2018-12-13T05:58:06.922Z,49.73
2018-12-13T06:00:35.336Z,47.10
2018-12-13T06:03:04.470Z,42.57
2018-12-13T06:05:33.000Z,42.87
2018-12-13T06:08:01.430Z,48.73
2018-12-13T06:10:29.962Z,41.87
2018-12-13T06:12:58.496Z,42.53
2018-12-13T06:15:26.897Z,44.57
2018-12-13T06:17:55.347Z,43.07
2018-12-13T06:20:24.024Z,46.43
2018-12-13T06:22:52.461Z,45.83
2018-12-13T06:25:20.896Z,47.80
2018-12-13T06:27:49.329Z,45.50
2018-12-13T06:30:17.817Z,51.40
2018-12-13T06:32:46.393Z,46.00
2018-12-13T06:35:14.861Z,48.50
2018-12-13T06:37:43.276Z,43.83
2018-12-13T06:40:15.594Z,47.17
2018-12-13T06:42:43.073Z,35.43
2018-12-13T06:45:11.544Z,46.23
2018-12-13T06:47:40.116Z,40.93
2018-12-13T06:50:08.565Z,38.00
2018-12-13T06:52:37.463Z,45.77
2018-12-13T06:55:06.832Z,45.70
2018-12-13T06:57:35.497Z,45.17
2018-12-13T07:00:20.438Z,40.93
2018-12-13T07:02:48.884Z,41.50
2018-12-13T07:05:17.302Z,44.27
2018-12-13T07:07:46.350Z,39.10
2018-12-13T07:10:15.014Z,43.70
2018-12-13T07:12:43.570Z,42.33
2018-12-13T07:15:12.037Z,34.93
2018-12-13T07:17:40.448Z,32.97
2018-12-13T07:20:08.844Z,43.83
2018-12-13T07:22:37.338Z,40.37
2018-12-13T07:25:05.756Z,40.10
2018-12-13T07:27:34.156Z,37.53
2018-12-13T07:30:02.618Z,33.40
2018-12-13T07:32:31.058Z,40.83
2018-12-13T07:35:01.471Z,42.30
2018-12-13T07:37:30.112Z,42.83
2018-12-13T07:39:58.615Z,44.80
2018-12-13T07:42:27.061Z,42.63
2018-12-13T07:44:55.655Z,44.93
2018-12-13T07:47:24.095Z,42.10
2018-12-13T07:49:52.547Z,49.03
2018-12-13T07:52:20.977Z,36.07
2018-12-13T07:54:49.420Z,39.33
2018-12-13T07:57:17.899Z,33.73
2018-12-13T07:59:46.393Z,35.00
2018-12-13T08:02:14.879Z,35.40
2018-12-13T08:04:43.281Z,32.27
2018-12-13T08:07:11.791Z,34.30
2018-12-13T08:09:40.254Z,36.53
2018-12-13T08:12:08.692Z,40.40
2018-12-13T08:14:37.172Z,36.13
2018-12-13T08:17:05.580Z,33.67
2018-12-13T08:19:33.984Z,35.53
2018-12-13T08:22:02.464Z,36.57
2018-12-13T08:24:31.031Z,41.17
2018-12-13T08:26:59.450Z,39.47
2018-12-13T08:29:27.918Z,33.83
2018-12-13T08:31:56.366Z,42.23
2018-12-13T08:34:24.769Z,38.37
2018-12-13T08:36:53.232Z,41.63
2018-12-13T08:39:21.684Z,36.17
2018-12-13T08:41:50.103Z,37.20
2018-12-13T08:44:18.556Z,38.07
2018-12-13T08:46:47.075Z,38.13
2018-12-13T08:49:15.501Z,37.53
2018-12-13T08:51:43.942Z,32.80
2018-12-13T08:54:12.355Z,32.97
2018-12-13T08:56:40.785Z,34.33
2018-12-13T08:59:09.382Z,34.43
2018-12-13T09:01:38.007Z,34.53
2018-12-13T09:04:06.590Z,32.33
2018-12-13T09:06:35.025Z,35.17
2018-12-13T09:09:05.074Z,29.90
2018-12-13T09:11:33.497Z,30.80
2018-12-13T09:14:02.002Z,28.73
2018-12-13T09:16:31.678Z,30.17
2018-12-13T09:19:00.335Z,31.90
2018-12-13T09:21:28.783Z,28.77
2018-12-13T09:23:57.370Z,32.47
2018-12-13T09:26:25.780Z,30.97
2018-12-13T09:28:54.200Z,27.90
2018-12-13T09:31:22.672Z,30.03
2018-12-13T09:33:51.110Z,31.67
2018-12-13T09:36:19.601Z,28.43
2018-12-13T09:38:48.166Z,23.20
2018-12-13T09:41:16.553Z,29.73
2018-12-13T09:43:45.551Z,25.30
2018-12-13T09:46:14.157Z,22.23
2018-12-13T09:48:42.593Z,28.03
2018-12-13T09:51:11.049Z,27.47
2018-12-13T09:53:39.497Z,30.07
2018-12-13T09:56:07.916Z,22.10
2018-12-13T09:58:36.402Z,27.03
2018-12-13T10:01:04.870Z,30.53
2018-12-13T10:03:33.281Z,28.27
2018-12-13T10:06:01.703Z,20.67
2018-12-13T10:08:30.187Z,24.90
2018-12-13T10:10:58.605Z,25.87
2018-12-13T10:13:27.349Z,21.40
2018-12-13T10:15:55.805Z,27.43
2018-12-13T10:18:24.275Z,25.13
2018-12-13T10:20:52.810Z,27.17
2018-12-13T10:23:21.312Z,25.60
2018-12-13T10:25:49.795Z,28.67
2018-12-13T10:28:18.279Z,30.07
2018-12-13T10:30:46.723Z,26.20
2018-12-13T10:33:15.147Z,29.27
2018-12-13T10:35:43.609Z,28.83
2018-12-13T10:38:12.085Z,25.47
2018-12-13T10:40:40.549Z,23.90
2018-12-13T10:43:09.023Z,24.37
2018-12-13T10:45:37.430Z,24.93
2018-12-13T10:48:05.867Z,24.83
2018-12-13T10:50:34.430Z,25.93
2018-12-13T10:53:02.887Z,22.50
2018-12-13T10:55:31.325Z,25.17
2018-12-13T10:57:59.847Z,25.30
2018-12-13T11:00:37.263Z,26.00
2018-12-13T11:03:24.179Z,26.33
2018-12-13T11:05:52.620Z,23.00
2018-12-13T11:08:21.247Z,28.90
2018-12-13T11:10:49.699Z,27.10
2018-12-13T11:13:18.312Z,23.57
2018-12-13T11:15:46.747Z,23.33
2018-12-13T11:18:15.251Z,28.43
2018-12-13T11:20:43.676Z,29.13
2018-12-13T11:23:12.100Z,26.53
2018-12-13T11:25:40.543Z,26.03
2018-12-13T11:28:20.149Z,23.70
2018-12-13T11:30:48.635Z,28.97
2018-12-13T11:33:17.055Z,27.27
2018-12-13T11:35:45.472Z,29.20
2018-12-13T11:38:14.229Z,27.37
2018-12-13T11:40:42.655Z,26.00
2018-12-13T11:43:11.086Z,30.37
2018-12-13T11:45:39.547Z,28.93
2018-12-13T11:48:08.012Z,28.70
2018-12-13T11:50:36.447Z,28.97
2018-12-13T11:53:04.876Z,32.40
2018-12-13T11:55:35.641Z,33.50
2018-12-13T11:58:05.870Z,32.80
2018-12-13T12:00:34.428Z,31.73
2018-12-13T12:03:02.860Z,32.63
2018-12-13T12:05:31.389Z,29.17
2018-12-13T12:07:59.808Z,31.50
2018-12-13T12:10:28.225Z,29.43
2018-12-13T12:12:56.687Z,29.87
2018-12-13T12:15:25.218Z,30.47
2018-12-13T12:17:53.676Z,26.97
2018-12-13T12:20:22.373Z,30.30
2018-12-13T12:22:50.816Z,36.60
2018-12-13T12:25:19.530Z,31.43
2018-12-13T12:27:47.995Z,32.23
2018-12-13T12:30:16.440Z,26.83
2018-12-13T12:32:44.907Z,28.87
2018-12-13T12:35:13.473Z,31.07
2018-12-13T12:37:41.985Z,31.17
2018-12-13T12:40:10.420Z,35.87
2018-12-13T12:42:38.834Z,28.00
2018-12-13T12:45:07.643Z,28.80
2018-12-13T12:47:36.110Z,32.37
2018-12-13T12:50:05.904Z,24.57
2018-12-13T12:52:34.378Z,25.50
2018-12-13T12:55:02.870Z,27.80
2018-12-13T12:57:31.695Z,28.17
2018-12-13T13:00:00.188Z,27.60
2018-12-13T13:02:30.048Z,32.13
2018-12-13T13:04:58.502Z,29.93
2018-12-13T13:07:27.102Z,28.07
2018-12-13T13:09:55.558Z,32.93
2018-12-13T13:12:24.070Z,32.27
2018-12-13T13:14:52.550Z,32.47
2018-12-13T13:17:21.105Z,30.87
2018-12-13T13:19:49.699Z,30.00
2018-12-13T13:22:18.237Z,37.37
2018-12-13T13:24:46.743Z,32.63
2018-12-13T13:27:15.207Z,32.17
2018-12-13T13:29:43.687Z,28.83
2018-12-13T13:32:12.245Z,35.63
2018-12-13T13:34:40.738Z,27.17
2018-12-13T13:37:09.289Z,31.20
2018-12-13T13:39:37.794Z,30.67
2018-12-13T13:42:06.396Z,32.13
2018-12-13T13:44:37.790Z,29.90
2018-12-13T13:47:06.492Z,31.77
2018-12-13T13:49:35.269Z,28.60
2018-12-13T13:52:03.702Z,31.30
2018-12-13T13:54:32.174Z,28.67
2018-12-13T13:57:00.626Z,28.87
2018-12-13T13:59:29.066Z,32.50
2018-12-13T14:01:57.685Z,34.30
2018-12-13T14:04:26.118Z,31.30
2018-12-13T14:06:55.202Z,30.27
2018-12-13T14:09:23.863Z,28.90
2018-12-13T14:11:52.408Z,27.23
2018-12-13T14:14:21.051Z,33.90
2018-12-13T14:16:49.513Z,29.30
2018-12-13T14:19:18.054Z,35.70
2018-12-13T14:21:46.545Z,32.20
2018-12-13T14:24:15.097Z,31.53
2018-12-13T14:26:43.783Z,33.60
2018-12-13T14:29:12.234Z,36.07
2018-12-13T14:31:40.775Z,31.43
2018-12-13T14:34:09.413Z,30.63
2018-12-13T14:36:38.915Z,27.63
2018-12-13T14:39:07.733Z,29.43
2018-12-13T14:41:36.169Z,30.00
2018-12-13T14:44:04.698Z,29.93
2018-12-13T14:46:33.200Z,29.40
2018-12-13T14:49:01.662Z,28.20
2018-12-13T14:51:30.096Z,29.30
2018-12-13T14:53:58.596Z,25.40
2018-12-13T14:56:27.262Z,27.37
2018-12-13T14:58:55.707Z,29.17
2018-12-13T15:01:24.447Z,30.50
2018-12-13T15:03:52.925Z,27.10
2018-12-13T15:06:21.359Z,28.97
2018-12-13T15:08:49.792Z,27.60
2018-12-13T15:11:18.830Z,29.90
2018-12-13T15:13:47.832Z,27.30
2018-12-13T15:16:16.324Z,29.63
2018-12-13T15:18:44.804Z,33.33
2018-12-13T15:21:13.212Z,31.87
2018-12-13T15:23:41.759Z,30.57
2018-12-13T15:26:10.147Z,26.67
2018-12-13T15:28:38.582Z,27.47
2018-12-13T15:31:07.186Z,24.10
2018-12-13T15:33:35.616Z,25.10
2018-12-13T15:36:04.030Z,25.10
2018-12-13T15:38:32.556Z,26.50
2018-12-13T15:41:01.279Z,28.40
2018-12-13T15:43:29.985Z,26.27
2018-12-13T15:45:58.416Z,28.87
2018-12-13T15:48:26.865Z,28.67
2018-12-13T15:50:55.422Z,25.83
2018-12-13T15:53:23.998Z,25.97
2018-12-13T15:55:52.502Z,24.03
2018-12-13T15:58:21.125Z,26.00
2018-12-13T16:00:49.765Z,25.40
2018-12-13T16:03:19.521Z,25.73
2018-12-13T16:05:47.990Z,23.93
2018-12-13T16:08:16.868Z,21.43
2018-12-13T16:10:45.347Z,25.13
2018-12-13T16:13:13.931Z,20.47
2018-12-13T16:15:42.491Z,23.37
2018-12-13T16:18:10.977Z,24.40
2018-12-13T16:20:39.618Z,21.70
2018-12-13T16:23:08.162Z,22.17
2018-12-13T16:25:36.710Z,23.83
2018-12-13T16:28:05.232Z,19.40
2018-12-13T16:30:33.878Z,19.10
2018-12-13T16:33:02.374Z,21.20
2018-12-13T16:35:30.812Z,22.90
2018-12-13T16:37:59.320Z,22.87
2018-12-13T16:40:27.824Z,21.87
2018-12-13T16:42:56.769Z,26.80
2018-12-13T16:45:25.350Z,18.43
2018-12-13T16:47:54.803Z,23.03
2018-12-13T16:50:23.232Z,21.00
2018-12-13T16:52:51.689Z,21.93
2018-12-13T16:55:20.142Z,20.60
2018-12-13T16:57:48.554Z,19.23
2018-12-13T17:00:17.003Z,20.50
2018-12-13T17:02:45.911Z,20.13
2018-12-13T17:05:14.331Z,20.20
2018-12-13T17:07:42.775Z,19.30
2018-12-13T17:10:16.593Z,20.03
2018-12-13T17:12:41.784Z,19.73
2018-12-13T17:15:10.430Z,18.87
2018-12-13T17:17:38.919Z,17.47
2018-12-13T17:20:07.495Z,20.30
2018-12-13T17:22:35.982Z,19.37
2018-12-13T17:25:04.657Z,18.60
2018-12-13T17:27:33.096Z,19.97
2018-12-13T17:30:01.509Z,19.43
2018-12-13T17:32:30.606Z,18.20
2018-12-13T17:34:59.038Z,20.57
2018-12-13T17:37:27.591Z,19.30
2018-12-13T17:39:56.014Z,19.57
2018-12-13T17:42:24.436Z,18.00
2018-12-13T17:44:52.920Z,18.40
2018-12-13T17:47:21.332Z,17.37
2018-12-13T17:49:49.799Z,19.63
2018-12-13T17:52:18.282Z,18.33
2018-12-13T17:54:46.932Z,16.93
2018-12-13T17:57:15.334Z,19.13
2018-12-13T17:59:43.775Z,16.23
2018-12-13T18:02:12.292Z,19.40
2018-12-13T18:04:40.916Z,16.03
2018-12-13T18:07:09.426Z,17.03
2018-12-13T18:09:38.052Z,18.90
2018-12-13T18:12:06.576Z,18.70
2018-12-13T18:14:35.096Z,17.27
2018-12-13T18:17:03.737Z,17.10
2018-12-13T18:19:32.289Z,14.50
2018-12-13T18:22:00.928Z,18.80
2018-12-13T18:24:29.436Z,19.07
2018-12-13T18:26:58.094Z,16.87
2018-12-13T18:29:26.614Z,19.93
2018-12-13T18:31:55.132Z,17.20
2018-12-13T18:34:23.545Z,17.87
2018-12-13T18:36:52.022Z,17.80
2018-12-13T18:39:20.478Z,19.23
2018-12-13T18:41:48.889Z,18.27
2018-12-13T18:44:17.384Z,15.20
2018-12-13T18:46:45.811Z,19.43
2018-12-13T18:49:14.292Z,22.03
2018-12-13T18:51:43.978Z,20.37
2018-12-13T18:54:12.462Z,20.87
2018-12-13T18:56:41.501Z,23.73
2018-12-13T18:59:10.077Z,21.90
2018-12-13T19:01:38.592Z,22.07
2018-12-13T19:04:07.105Z,23.47
2018-12-13T19:06:36.501Z,21.80
2018-12-13T19:09:11.576Z,21.97
2018-12-13T19:11:40.127Z,23.43
2018-12-13T19:14:09.187Z,22.17
2018-12-13T19:16:37.705Z,21.87
2018-12-13T19:19:09.353Z,26.93
2018-12-13T19:24:43.335Z,21.67
2018-12-13T19:27:11.855Z,20.13
2018-12-13T19:29:40.436Z,22.67
2018-12-13T19:32:08.935Z,19.67
2018-12-13T19:34:37.523Z,21.10
2018-12-13T19:37:05.985Z,19.63
2018-12-13T19:39:34.490Z,19.03
2018-12-13T19:42:02.974Z,19.90
2018-12-13T19:44:31.567Z,18.30
2018-12-13T19:47:00.103Z,19.50
2018-12-13T19:49:28.568Z,16.77
2018-12-13T19:51:56.986Z,18.97
2018-12-13T19:54:25.500Z,19.10
2018-12-13T19:56:54.055Z,17.87
2018-12-13T19:59:22.804Z,17.40
2018-12-13T20:01:51.256Z,19.10
2018-12-13T20:04:19.696Z,20.10
2018-12-13T20:06:48.130Z,19.47
2018-12-13T20:09:16.604Z,16.47
2018-12-13T20:11:45.040Z,16.77
2018-12-13T20:14:13.524Z,16.90
2018-12-13T20:16:41.983Z,21.27
2018-12-13T20:19:10.562Z,17.10
2018-12-13T20:21:39.129Z,16.17
2018-12-13T20:24:08.483Z,18.33
2018-12-13T20:26:36.963Z,17.20
2018-12-13T20:29:05.436Z,19.50
2018-12-13T20:31:33.931Z,18.43
2018-12-13T20:34:02.392Z,21.67
2018-12-13T20:36:31.741Z,16.00
2018-12-13T20:39:01.509Z,17.57
2018-12-13T20:41:29.930Z,20.07
2018-12-13T20:43:58.379Z,15.10
2018-12-13T20:46:28.582Z,16.67
2018-12-13T20:48:57.067Z,17.33
2018-12-13T20:51:25.553Z,14.97
2018-12-13T20:53:54.039Z,12.67
2018-12-13T20:56:22.498Z,14.30
2018-12-13T20:58:50.930Z,17.60
2018-12-13T21:01:19.544Z,15.63
2018-12-13T21:03:48.025Z,16.93
2018-12-13T21:06:16.551Z,18.50
2018-12-13T21:08:44.971Z,17.17
2018-12-13T21:11:13.457Z,17.00
2018-12-13T21:13:41.877Z,19.67
2018-12-13T21:16:10.342Z,15.80
2018-12-13T21:18:38.767Z,17.27
2018-12-13T21:21:07.174Z,16.97
2018-12-13T21:23:35.725Z,17.47
2018-12-13T21:26:04.179Z,17.03
2018-12-13T21:28:32.766Z,18.30
2018-12-13T21:31:01.242Z,17.37
2018-12-13T21:33:29.701Z,16.13
2018-12-13T21:35:58.140Z,18.77
2018-12-13T21:38:26.571Z,17.40
2018-12-13T21:40:54.997Z,17.57
2018-12-13T21:43:23.495Z,16.70
2018-12-13T21:45:51.920Z,15.47
2018-12-13T21:48:21.262Z,17.90
2018-12-13T21:50:49.668Z,19.20
2018-12-13T21:53:18.366Z,17.17
2018-12-13T21:55:46.837Z,18.30
2018-12-13T21:58:15.280Z,17.73
2018-12-13T22:00:43.702Z,15.67
2018-12-13T22:03:12.179Z,19.13
2018-12-13T22:05:40.607Z,16.87
2018-12-13T22:08:09.073Z,17.37
2018-12-13T22:10:37.530Z,18.93
2018-12-13T22:13:06.090Z,20.10
2018-12-13T22:15:34.580Z,15.97
2018-12-13T22:18:03.106Z,18.47
2018-12-13T22:20:31.521Z,19.63
2018-12-13T22:23:00.045Z,18.73
2018-12-13T22:25:28.567Z,14.13
2018-12-13T22:27:56.999Z,15.40
2018-12-13T22:30:25.463Z,18.40
2018-12-13T22:32:53.932Z,17.43
2018-12-13T22:35:22.525Z,18.57
2018-12-13T22:37:51.497Z,17.83
2018-12-13T22:40:19.953Z,20.83
2018-12-13T22:42:48.361Z,19.17
2018-12-13T22:45:16.812Z,18.80
2018-12-13T22:47:45.267Z,21.70
2018-12-13T22:50:13.698Z,22.10
2018-12-13T22:52:42.218Z,21.33
2018-12-13T22:55:10.632Z,22.10
2018-12-13T22:57:39.050Z,19.60
2018-12-13T23:00:10.320Z,22.60
2018-12-13T23:02:38.863Z,21.70
2018-12-13T23:05:07.370Z,18.67
2018-12-13T23:07:35.849Z,25.53
2018-12-13T23:10:04.309Z,24.60
2018-12-13T23:12:32.761Z,25.87
2018-12-13T23:15:01.209Z,23.27
2018-12-13T23:17:29.794Z,27.60
2018-12-13T23:19:58.316Z,25.50
2018-12-13T23:22:26.763Z,26.80
2018-12-13T23:24:55.236Z,28.40
2018-12-13T23:27:23.770Z,26.43
2018-12-13T23:29:52.254Z,25.20
2018-12-13T23:32:20.655Z,24.67
2018-12-13T23:34:49.223Z,24.40
2018-12-13T23:37:17.678Z,24.50
2018-12-13T23:39:46.146Z,28.37
2018-12-13T23:42:14.636Z,23.67
2018-12-13T23:44:43.120Z,26.17
2018-12-13T23:47:11.568Z,25.80
2018-12-13T23:49:39.986Z,28.83
2018-12-13T23:52:08.454Z,26.47
2018-12-13T23:54:36.904Z,26.90
2018-12-13T23:57:05.356Z,26.07
2018-12-13T23:59:33.805Z,28.67
